createdAt,value
2023-03-01T00:01:20.287Z,100371.11
2023-03-01T00:03:48.475Z,100368.44
2023-03-01T00:06:16.408Z,100370.19
2023-03-01T00:08:44.032Z,100374.29
2023-03-01T00:11:14.050Z,100376.02
2023-03-01T00:13:43.122Z,100381.66
2023-03-01T00:16:16.304Z,100379.42
2023-03-01T00:18:44.395Z,100385.20
2023-03-01T00:21:12.611Z,100383.75
2023-03-01T00:23:40.708Z,100385.30
2023-03-01T00:26:10.670Z,100379.89
2023-03-01T00:28:38.948Z,100376.74
2023-03-01T00:31:15.407Z,100371.88
2023-03-01T00:33:43.462Z,100367.38
2023-03-01T00:36:13.062Z,100366.82
2023-03-01T00:38:45.617Z,100361.45
2023-03-01T00:41:15.829Z,100358.70
2023-03-01T00:43:44.021Z,100357.60
2023-03-01T00:46:14.179Z,100356.55
2023-03-01T00:48:42.515Z,100357.25
2023-03-01T00:51:11.843Z,100355.23
2023-03-01T00:53:40.170Z,100355.91
2023-03-01T00:56:10.200Z,100358.18
2023-03-01T00:58:38.147Z,100365.22
2023-03-01T01:01:20.784Z,100365.17
2023-03-01T01:03:52.394Z,100366.79
2023-03-01T01:06:34.390Z,100367.42
2023-03-01T01:09:03.127Z,100367.48
2023-03-01T01:11:31.172Z,100368.16
2023-03-01T01:14:00.254Z,100366.00
2023-03-01T01:16:29.349Z,100361.29
2023-03-01T01:18:57.560Z,100364.80
2023-03-01T01:21:26.557Z,100363.03
2023-03-01T01:23:55.004Z,100362.55
2023-03-01T01:26:28.461Z,100366.88
2023-03-01T01:28:56.780Z,100360.92
2023-03-01T01:31:26.670Z,100352.70
2023-03-01T01:33:56.715Z,100352.98
2023-03-01T01:36:25.542Z,100346.41
2023-03-01T01:38:53.401Z,100343.36
2023-03-01T01:41:22.764Z,100334.02
2023-03-01T01:44:11.710Z,100323.23
2023-03-01T01:46:52.702Z,100322.66
2023-03-01T01:49:26.673Z,100318.39
2023-03-01T01:52:02.757Z,100316.15
2023-03-01T01:54:40.519Z,100318.20
2023-03-01T01:57:12.374Z,100316.02
2023-03-01T01:59:42.198Z,100312.55
2023-03-01T02:02:10.018Z,100311.24
2023-03-01T02:04:37.616Z,100305.77
2023-03-01T02:07:18.203Z,100303.80
2023-03-01T02:09:50.857Z,100297.90
2023-03-01T02:12:22.075Z,100285.89
2023-03-01T02:14:49.851Z,100278.60
2023-03-01T02:17:18.850Z,100270.41
2023-03-01T02:20:16.128Z,100262.76
2023-03-01T02:22:45.432Z,100266.84
2023-03-01T02:25:30.186Z,100268.58
2023-03-01T02:28:19.211Z,100260.90
2023-03-01T02:31:08.978Z,100256.73
2023-03-01T02:33:39.536Z,100261.38
2023-03-01T02:36:31.711Z,100262.30
2023-03-01T02:39:00.668Z,100271.44
2023-03-01T02:41:29.926Z,100272.85
2023-03-01T02:43:57.680Z,100279.23
2023-03-01T02:46:26.793Z,100269.42
2023-03-01T02:48:59.108Z,100269.87
2023-03-01T02:51:43.153Z,100266.36
2023-03-01T02:54:29.954Z,100270.42
2023-03-01T02:56:59.263Z,100266.98
2023-03-01T02:59:30.924Z,100263.79
2023-03-01T03:01:58.540Z,100263.34
2023-03-01T03:04:26.252Z,100262.68
2023-03-01T03:06:53.852Z,100262.45
2023-03-01T03:09:21.506Z,100263.09
2023-03-01T03:11:49.391Z,100263.40
2023-03-01T03:14:18.076Z,100265.27
2023-03-01T03:16:49.865Z,100265.91
2023-03-01T03:19:19.396Z,100266.27
2023-03-01T03:21:47.645Z,100263.75
2023-03-01T03:24:15.276Z,100265.98
2023-03-01T03:26:42.920Z,100265.88
2023-03-01T03:29:10.522Z,100265.06
2023-03-01T03:31:38.153Z,100266.28
2023-03-01T03:34:05.900Z,100267.71
2023-03-01T03:36:33.491Z,100266.88
2023-03-01T03:39:01.110Z,100267.78
2023-03-01T03:41:28.770Z,100260.23
2023-03-01T03:43:56.432Z,100260.30
2023-03-01T03:46:24.027Z,100264.20
2023-03-01T03:48:51.688Z,100260.03
2023-03-01T03:51:19.797Z,100264.23
2023-03-01T03:53:47.473Z,100264.59
2023-03-01T03:56:15.612Z,100261.93
2023-03-01T03:58:43.291Z,100261.36
2023-03-01T04:01:10.909Z,100263.98
2023-03-01T04:03:38.581Z,100258.10
2023-03-01T04:06:07.051Z,100255.56
2023-03-01T04:08:34.717Z,100255.81
2023-03-01T04:11:30.217Z,100260.14
2023-03-01T04:13:59.408Z,100257.91
2023-03-01T04:16:27.258Z,100258.87
2023-03-01T04:18:54.995Z,100255.98
2023-03-01T04:21:23.054Z,100256.27
2023-03-01T04:23:53.543Z,100256.29
2023-03-01T04:26:21.523Z,100255.41
2023-03-01T04:28:51.031Z,100259.27
2023-03-01T04:31:22.067Z,100257.73
2023-03-01T04:33:52.624Z,100250.09
2023-03-01T04:36:23.752Z,100241.14
2023-03-01T04:38:51.522Z,100244.34
2023-03-01T04:41:20.907Z,100243.91
2023-03-01T04:43:49.644Z,100247.02
2023-03-01T04:46:20.621Z,100242.60
2023-03-01T04:48:48.619Z,100232.37
2023-03-01T04:51:17.071Z,100230.73
2023-03-01T04:53:45.500Z,100233.61
2023-03-01T04:56:14.889Z,100233.52
2023-03-01T04:58:43.033Z,100229.57
2023-03-01T05:01:16.652Z,100235.79
2023-03-01T05:03:45.910Z,100234.74
2023-03-01T05:06:14.468Z,100227.90
2023-03-01T05:08:43.132Z,100224.58
2023-03-01T05:11:11.661Z,100231.47
2023-03-01T05:13:40.201Z,100228.17
2023-03-01T05:16:12.286Z,100229.45
2023-03-01T05:18:41.330Z,100231.55
2023-03-01T05:21:16.867Z,100234.16
2023-03-01T05:23:45.418Z,100233.84
2023-03-01T05:26:27.380Z,100221.68
2023-03-01T05:29:00.238Z,100218.13
2023-03-01T05:31:29.112Z,100211.26
2023-03-01T05:33:56.826Z,100213.58
2023-03-01T05:36:24.523Z,100221.73
2023-03-01T05:38:52.103Z,100222.99
2023-03-01T05:41:19.738Z,100217.85
2023-03-01T05:43:47.329Z,100221.04
2023-03-01T05:46:16.269Z,100212.27
2023-03-01T05:48:44.739Z,100205.84
2023-03-01T05:51:13.154Z,100203.64
2023-03-01T05:53:40.886Z,100202.44
2023-03-01T05:56:08.778Z,100197.78
2023-03-01T05:58:36.390Z,100195.51
2023-03-01T06:01:04.111Z,100194.45
2023-03-01T06:03:31.781Z,100190.98
2023-03-01T06:05:59.617Z,100192.66
2023-03-01T06:08:28.327Z,100184.17
2023-03-01T06:10:56.774Z,100185.52
2023-03-01T06:13:25.361Z,100187.40
2023-03-01T06:15:53.169Z,100190.50
2023-03-01T06:18:20.994Z,100191.13
2023-03-01T06:20:56.786Z,100196.33
2023-03-01T06:23:25.212Z,100203.90
2023-03-01T06:25:53.223Z,100214.27
2023-03-01T06:28:21.355Z,100225.56
2023-03-01T06:30:50.505Z,100237.14
2023-03-01T06:33:21.031Z,100248.03
2023-03-01T06:35:48.675Z,100247.58
2023-03-01T06:38:18.418Z,100247.82
2023-03-01T06:40:46.537Z,100250.58
2023-03-01T06:43:14.157Z,100248.96
2023-03-01T06:45:42.639Z,100246.73
2023-03-01T06:48:10.279Z,100240.42
2023-03-01T06:50:39.225Z,100234.50
2023-03-01T06:53:07.120Z,100232.39
2023-03-01T06:55:34.930Z,100230.15
2023-03-01T06:58:04.039Z,100223.72
2023-03-01T07:00:32.178Z,100220.89
2023-03-01T07:03:01.488Z,100226.05
2023-03-01T07:05:30.603Z,100227.41
2023-03-01T07:07:58.399Z,100225.83
2023-03-01T07:10:26.101Z,100226.02
2023-03-01T07:13:00.055Z,100232.00
2023-03-01T07:15:29.613Z,100231.84
2023-03-01T07:17:57.460Z,100234.21
2023-03-01T07:20:26.297Z,100231.05
2023-03-01T07:22:55.532Z,100224.87
2023-03-01T07:25:23.364Z,100217.53
2023-03-01T07:27:53.021Z,100222.13
2023-03-01T07:30:21.861Z,100224.43
2023-03-01T07:32:49.740Z,100230.88
2023-03-01T07:35:17.672Z,100231.29
2023-03-01T07:37:45.307Z,100231.70
2023-03-01T07:40:13.471Z,100231.09
2023-03-01T07:42:41.216Z,100227.27
2023-03-01T07:45:09.649Z,100227.60
2023-03-01T07:47:37.558Z,100224.30
2023-03-01T07:50:06.427Z,100222.81
2023-03-01T07:52:34.081Z,100221.70
2023-03-01T07:55:01.711Z,100214.67
2023-03-01T07:57:29.345Z,100217.39
2023-03-01T07:59:57.181Z,100220.00
2023-03-01T08:02:24.804Z,100224.33
2023-03-01T08:04:52.443Z,100225.26
2023-03-01T08:07:20.063Z,100233.23
2023-03-01T08:09:47.651Z,100230.80
2023-03-01T08:12:17.238Z,100222.92
2023-03-01T08:14:44.935Z,100224.73
2023-03-01T08:17:15.397Z,100224.20
2023-03-01T08:19:44.099Z,100221.31
2023-03-01T08:22:11.821Z,100220.82
2023-03-01T08:24:39.431Z,100223.60
2023-03-01T08:27:07.124Z,100222.20
2023-03-01T08:29:34.794Z,100225.02
2023-03-01T08:32:02.489Z,100225.65
2023-03-01T08:34:32.172Z,100227.88
2023-03-01T08:36:59.828Z,100224.24
2023-03-01T08:39:28.038Z,100223.11
2023-03-01T08:41:55.693Z,100222.23
2023-03-01T08:44:23.347Z,100221.92
2023-03-01T08:46:52.461Z,100219.88
2023-03-01T08:49:20.974Z,100221.29
2023-03-01T08:51:49.015Z,100209.12
2023-03-01T08:54:19.979Z,100205.05
2023-03-01T08:56:48.202Z,100202.52
2023-03-01T08:59:18.184Z,100187.70
2023-03-01T09:01:45.874Z,100181.63
2023-03-01T09:04:15.278Z,100182.83
2023-03-01T09:06:43.180Z,100187.29
2023-03-01T09:09:16.962Z,100190.31
2023-03-01T09:11:47.107Z,100185.67
2023-03-01T09:14:15.473Z,100189.29
2023-03-01T09:16:43.510Z,100188.52
2023-03-01T09:19:12.313Z,100190.44
2023-03-01T09:21:41.225Z,100191.42
2023-03-01T09:24:14.484Z,100195.69
2023-03-01T09:26:42.753Z,100194.14
2023-03-01T09:29:10.679Z,100201.73
2023-03-01T09:31:39.111Z,100201.67
2023-03-01T09:34:07.366Z,100204.84
2023-03-01T09:36:35.073Z,100207.59
2023-03-01T09:39:03.634Z,100209.80
2023-03-01T09:41:50.144Z,100206.84
2023-03-01T09:44:41.473Z,100201.73
2023-03-01T09:47:30.275Z,100201.55
2023-03-01T09:50:10.595Z,100204.83
2023-03-01T09:52:47.708Z,100198.02
2023-03-01T09:55:19.011Z,100196.31
2023-03-01T09:58:01.127Z,100192.63
2023-03-01T10:00:42.138Z,100190.77
2023-03-01T10:03:27.689Z,100189.20
2023-03-01T10:06:01.969Z,100189.11
2023-03-01T10:08:37.155Z,100185.80
2023-03-01T10:11:07.498Z,100189.67
2023-03-01T10:13:54.977Z,100190.06
2023-03-01T10:16:27.748Z,100190.58
2023-03-01T10:19:01.790Z,100190.90
2023-03-01T10:21:32.468Z,100189.56
2023-03-01T10:24:13.555Z,100189.13
2023-03-01T10:27:03.152Z,100186.70
2023-03-01T10:30:22.676Z,100182.78
2023-03-01T10:32:52.578Z,100181.89
2023-03-01T10:35:26.067Z,100179.13
2023-03-01T10:38:05.045Z,100175.28
2023-03-01T10:40:34.098Z,100168.09
2023-03-01T10:43:04.318Z,100176.05
2023-03-01T10:45:38.580Z,100175.08
2023-03-01T10:48:16.931Z,100178.73
2023-03-01T10:50:50.090Z,100174.01
2023-03-01T10:53:21.701Z,100165.50
2023-03-01T10:55:58.111Z,100165.36
2023-03-01T10:58:25.719Z,100158.02
2023-03-01T11:01:20.702Z,100156.40
2023-03-01T11:04:13.754Z,100147.74
2023-03-01T11:06:42.588Z,100142.63
2023-03-01T11:09:16.772Z,100142.23
2023-03-01T11:11:45.249Z,100139.34
2023-03-01T11:14:28.914Z,100130.87
2023-03-01T11:17:06.207Z,100129.70
2023-03-01T11:19:34.372Z,100126.09
2023-03-01T11:22:06.977Z,100129.80
2023-03-01T11:25:09.015Z,100126.86
2023-03-01T11:27:40.245Z,100128.23
2023-03-01T11:31:01.839Z,100129.98
2023-03-01T11:34:11.379Z,100124.49
2023-03-01T11:36:47.516Z,100122.89
2023-03-01T11:39:37.573Z,100121.64
2023-03-01T11:42:18.815Z,100122.41
2023-03-01T11:44:53.087Z,100116.83
2023-03-01T11:47:49.828Z,100112.23
2023-03-01T11:50:30.054Z,100113.66
2023-03-01T11:53:20.129Z,100113.02
2023-03-01T11:56:19.942Z,100108.85
2023-03-01T11:58:57.404Z,100103.59
2023-03-01T12:01:41.755Z,100109.58
2023-03-01T12:04:32.003Z,100104.02
2023-03-01T12:07:20.594Z,100106.31
2023-03-01T12:10:10.003Z,100105.33
2023-03-01T12:12:46.268Z,100100.45
2023-03-01T12:15:27.448Z,100095.16
2023-03-01T12:18:14.398Z,100092.06
2023-03-01T12:21:00.672Z,100087.02
2023-03-01T12:23:56.934Z,100083.95
2023-03-01T12:26:28.234Z,100085.80
2023-03-01T12:29:21.377Z,100084.80
2023-03-01T12:32:06.500Z,100080.62
2023-03-01T12:34:53.227Z,100079.02
2023-03-01T12:37:31.924Z,100076.73
2023-03-01T12:40:18.980Z,100070.90
2023-03-01T12:42:59.092Z,100068.06
2023-03-01T12:45:42.540Z,100057.39
2023-03-01T12:48:29.465Z,100050.01
2023-03-01T12:51:01.260Z,100047.22
2023-03-01T12:53:47.843Z,100048.14
2023-03-01T12:56:21.123Z,100046.76
2023-03-01T12:59:17.270Z,100042.34
2023-03-01T13:02:12.975Z,100041.90
2023-03-01T13:05:12.454Z,100045.91
2023-03-01T13:07:50.318Z,100046.05
2023-03-01T13:10:57.493Z,100046.91
2023-03-01T13:13:27.088Z,100046.91
2023-03-01T13:15:55.751Z,100048.77
2023-03-01T13:18:24.265Z,100050.07
2023-03-01T13:20:58.236Z,100051.67
2023-03-01T13:23:35.317Z,100049.48
2023-03-01T13:26:16.743Z,100053.73
2023-03-01T13:28:57.041Z,100060.92
2023-03-01T13:31:27.513Z,100058.23
2023-03-01T13:33:56.820Z,100051.57
2023-03-01T13:36:31.521Z,100050.05
2023-03-01T13:39:01.579Z,100044.60
2023-03-01T13:41:44.930Z,100047.79
2023-03-01T13:44:37.168Z,100045.27
2023-03-01T13:47:08.095Z,100043.73
2023-03-01T13:49:53.266Z,100043.16
2023-03-01T13:52:45.781Z,100043.34
2023-03-01T13:55:26.298Z,100047.31
2023-03-01T13:58:00.049Z,100050.49
2023-03-01T14:00:29.584Z,100051.61
2023-03-01T14:03:18.030Z,100051.83
2023-03-01T14:06:12.813Z,100050.43
2023-03-01T14:08:42.472Z,100048.07
2023-03-01T14:11:34.730Z,100042.34
2023-03-01T14:14:28.184Z,100033.61
2023-03-01T14:17:01.669Z,100033.20
2023-03-01T14:19:33.623Z,100025.26
2023-03-01T14:22:24.270Z,100018.66
2023-03-01T14:25:06.328Z,100015.80
2023-03-01T14:27:45.713Z,100013.20
2023-03-01T14:30:29.112Z,100004.98
2023-03-01T14:33:02.211Z,100003.64
2023-03-01T14:35:32.356Z,100001.85
2023-03-01T14:38:00.222Z,99997.73
2023-03-01T14:40:27.902Z,99995.38
2023-03-01T14:42:58.136Z,99993.06
2023-03-01T14:45:28.319Z,99989.60
2023-03-01T14:47:57.132Z,99989.66
2023-03-01T14:50:32.368Z,99997.39
2023-03-01T14:53:03.076Z,99992.25
2023-03-01T14:55:39.750Z,99993.28
2023-03-01T14:58:13.708Z,99993.67
2023-03-01T15:00:52.185Z,99994.36
2023-03-01T15:03:39.764Z,99991.95
2023-03-01T15:06:08.536Z,99994.70
2023-03-01T15:08:37.901Z,99986.69
2023-03-01T15:11:23.875Z,99986.30
2023-03-01T15:13:55.486Z,99984.54
2023-03-01T15:16:34.001Z,99987.09
2023-03-01T15:19:04.735Z,99983.70
2023-03-01T15:21:34.847Z,99985.85
2023-03-01T15:24:21.025Z,99987.27
2023-03-01T15:27:02.860Z,99982.89
2023-03-01T15:29:34.240Z,99982.09
2023-03-01T15:32:29.832Z,99981.44
2023-03-01T15:34:59.390Z,99978.77
2023-03-01T15:37:48.809Z,99977.70
2023-03-01T15:40:32.497Z,99976.75
2023-03-01T15:43:05.577Z,99974.32
2023-03-01T15:45:39.527Z,99974.51
2023-03-01T15:48:19.142Z,99969.36
2023-03-01T15:50:55.366Z,99970.35
2023-03-01T15:53:23.180Z,99973.89
2023-03-01T15:55:51.371Z,99975.04
2023-03-01T15:58:22.155Z,99976.23
2023-03-01T16:01:00.811Z,99975.45
2023-03-01T16:03:30.090Z,99977.09
2023-03-01T16:05:57.961Z,99974.89
2023-03-01T16:08:25.775Z,99966.82
2023-03-01T16:10:55.474Z,99968.40
2023-03-01T16:13:23.391Z,99963.91
2023-03-01T16:15:51.139Z,99961.42
2023-03-01T16:18:18.821Z,99966.79
2023-03-01T16:20:46.438Z,99973.36
2023-03-01T16:23:15.349Z,99972.40
2023-03-01T16:25:43.103Z,99976.50
2023-03-01T16:28:11.119Z,99976.40
2023-03-01T16:30:40.726Z,99980.21
2023-03-01T16:33:24.180Z,99983.21
2023-03-01T16:35:56.312Z,99983.44
2023-03-01T16:38:24.061Z,99984.04
2023-03-01T16:40:53.006Z,99979.71
2023-03-01T16:43:21.064Z,99979.27
2023-03-01T16:45:48.781Z,99983.61
2023-03-01T16:48:16.499Z,99983.17
2023-03-01T16:50:44.157Z,99981.98
2023-03-01T16:53:12.218Z,99979.00
2023-03-01T16:55:46.111Z,99979.20
2023-03-01T16:58:13.891Z,99977.88
2023-03-01T17:00:41.505Z,99979.30
2023-03-01T17:03:09.188Z,99983.63
2023-03-01T17:05:37.008Z,99986.96
2023-03-01T17:08:04.614Z,99992.48
2023-03-01T17:10:33.907Z,99992.09
2023-03-01T17:13:01.612Z,99991.41
2023-03-01T17:15:29.497Z,99988.78
2023-03-01T17:17:57.186Z,99991.54
2023-03-01T17:20:25.027Z,99990.52
2023-03-01T17:22:53.203Z,99990.52
2023-03-01T17:25:20.854Z,99987.55
2023-03-01T17:27:48.494Z,99985.17
2023-03-01T17:30:16.473Z,99986.39
2023-03-01T17:32:44.494Z,99984.98
2023-03-01T17:35:14.191Z,99989.40
2023-03-01T17:37:46.541Z,99986.42
2023-03-01T17:40:14.433Z,99984.52
2023-03-01T17:42:42.195Z,99982.01
2023-03-01T17:45:10.430Z,99981.79
2023-03-01T17:47:38.482Z,99974.45
2023-03-01T17:50:08.196Z,99974.23
2023-03-01T17:52:35.944Z,99968.40
2023-03-01T17:55:05.369Z,99962.18
2023-03-01T17:57:33.004Z,99961.41
2023-03-01T18:00:00.806Z,99953.91
2023-03-01T18:02:28.931Z,99956.88
2023-03-01T18:04:58.987Z,99953.46
2023-03-01T18:07:27.863Z,99953.11
2023-03-01T18:09:56.113Z,99952.34
2023-03-01T18:12:23.763Z,99950.92
2023-03-01T18:14:53.668Z,99948.08
2023-03-01T18:17:25.600Z,99948.28
2023-03-01T18:19:53.437Z,99946.80
2023-03-01T18:22:21.093Z,99948.65
2023-03-01T18:24:48.722Z,99953.08
2023-03-01T18:27:16.492Z,99956.34
2023-03-01T18:29:44.390Z,99955.61
2023-03-01T18:32:12.130Z,99956.88
2023-03-01T18:34:39.927Z,99958.38
2023-03-01T18:37:09.962Z,99956.64
2023-03-01T18:39:38.367Z,99955.88
2023-03-01T18:42:06.091Z,99958.80
2023-03-01T18:44:34.406Z,99959.05
2023-03-01T18:47:02.316Z,99957.19
2023-03-01T18:49:30.131Z,99957.47
2023-03-01T18:51:57.819Z,99959.16
2023-03-01T18:54:25.829Z,99963.17
2023-03-01T18:56:53.456Z,99961.02
2023-03-01T18:59:21.075Z,99958.02
2023-03-01T19:01:48.939Z,99960.84
2023-03-01T19:04:16.620Z,99961.96
2023-03-01T19:06:44.221Z,99961.40
2023-03-01T19:09:12.008Z,99958.35
2023-03-01T19:11:40.694Z,99962.17
2023-03-01T19:14:08.772Z,99961.25
2023-03-01T19:16:36.560Z,99964.04
2023-03-01T19:19:06.332Z,99968.23
2023-03-01T19:21:34.596Z,99966.48
2023-03-01T19:24:03.143Z,99968.92
2023-03-01T19:26:31.556Z,99970.29
2023-03-01T19:28:59.959Z,99974.84
2023-03-01T19:31:29.627Z,99978.45
2023-03-01T19:34:10.037Z,99974.61
2023-03-01T19:36:43.253Z,99981.27
2023-03-01T19:39:13.534Z,99987.08
2023-03-01T19:41:42.545Z,99987.52
2023-03-01T19:44:11.164Z,99990.29
2023-03-01T19:46:39.206Z,99989.33
2023-03-01T19:49:08.175Z,99987.08
2023-03-01T19:51:38.928Z,99988.16
2023-03-01T19:54:07.386Z,99993.78
2023-03-01T19:56:35.687Z,99988.30
2023-03-01T19:59:04.564Z,99993.05
2023-03-01T20:01:34.421Z,99992.13
2023-03-01T20:04:03.907Z,99994.27
2023-03-01T20:06:32.123Z,99992.58
2023-03-01T20:09:12.095Z,99991.34
2023-03-01T20:11:46.881Z,99990.95
2023-03-01T20:14:14.639Z,99989.27
2023-03-01T20:16:42.344Z,99991.39
2023-03-01T20:19:10.068Z,99990.15
2023-03-01T20:21:37.823Z,99989.92
2023-03-01T20:24:05.768Z,99986.40
2023-03-01T20:26:33.952Z,99987.00
2023-03-01T20:29:01.911Z,99982.81
2023-03-01T20:31:29.903Z,99984.05
2023-03-01T20:33:59.364Z,99980.23
2023-03-01T20:36:27.803Z,99980.63
2023-03-01T20:38:56.191Z,99987.59
2023-03-01T20:41:28.634Z,99985.39
2023-03-01T20:43:58.602Z,99987.30
2023-03-01T20:46:30.021Z,99988.87
2023-03-01T20:48:57.802Z,99987.97
2023-03-01T20:51:25.460Z,99989.94
2023-03-01T20:53:53.378Z,99992.06
2023-03-01T20:56:21.941Z,99994.31
2023-03-01T20:59:05.825Z,99995.80
2023-03-01T21:01:33.578Z,99992.64
2023-03-01T21:04:01.674Z,99996.50
2023-03-01T21:06:29.413Z,100000.39
2023-03-01T21:08:57.682Z,99996.43
2023-03-01T21:11:25.353Z,99993.62
2023-03-01T21:13:54.000Z,99993.33
2023-03-01T21:16:22.012Z,99991.69
2023-03-01T21:18:50.267Z,99990.16
2023-03-01T21:21:20.339Z,99987.59
2023-03-01T21:23:48.080Z,99987.77
2023-03-01T21:26:19.344Z,99984.98
2023-03-01T21:28:48.217Z,99985.25
2023-03-01T21:31:22.401Z,99982.83
2023-03-01T21:33:52.773Z,99979.67
2023-03-01T21:36:22.176Z,99982.35
2023-03-01T21:38:51.232Z,99982.67
2023-03-01T21:41:22.232Z,99980.48
2023-03-01T21:43:51.676Z,99980.50
2023-03-01T21:46:21.586Z,99979.02
2023-03-01T21:48:50.742Z,99976.82
2023-03-01T21:51:20.372Z,99974.13
2023-03-01T21:53:48.176Z,99975.02
2023-03-01T21:56:27.123Z,99979.05
2023-03-01T21:58:55.579Z,99980.53
2023-03-01T22:01:25.797Z,99977.98
2023-03-01T22:03:55.130Z,99974.55
2023-03-01T22:06:34.256Z,99969.52
2023-03-01T22:09:06.014Z,99963.80
2023-03-01T22:11:37.049Z,99964.84
2023-03-01T22:14:05.874Z,99958.29
2023-03-01T22:16:35.503Z,99958.77
2023-03-01T22:19:04.638Z,99958.02
2023-03-01T22:21:32.943Z,99963.81
2023-03-01T22:24:01.079Z,99965.41
2023-03-01T22:26:32.062Z,99963.73
2023-03-01T22:29:01.930Z,99964.19
2023-03-01T22:31:29.960Z,99957.25
2023-03-01T22:33:58.534Z,99958.60
2023-03-01T22:36:27.055Z,99960.21
2023-03-01T22:39:00.188Z,99959.52
2023-03-01T22:41:30.089Z,99955.04
2023-03-01T22:43:57.799Z,99955.27
2023-03-01T22:46:27.111Z,99956.27
2023-03-01T22:48:55.729Z,99952.60
2023-03-01T22:51:35.154Z,99949.48
2023-03-01T22:54:03.520Z,99950.48
2023-03-01T22:56:34.000Z,99948.38
2023-03-01T22:59:08.755Z,99948.62
2023-03-01T23:01:37.453Z,99940.23
2023-03-01T23:04:05.497Z,99937.70
2023-03-01T23:06:33.681Z,99934.61
2023-03-01T23:09:04.182Z,99937.06
2023-03-01T23:11:31.783Z,99934.17
2023-03-01T23:13:59.824Z,99933.71
2023-03-01T23:16:27.535Z,99935.42
2023-03-01T23:18:58.217Z,99936.68
2023-03-01T23:21:26.780Z,99929.07
2023-03-01T23:23:55.563Z,99928.27
2023-03-01T23:26:26.851Z,99927.84
2023-03-01T23:28:55.911Z,99927.39
2023-03-01T23:31:23.622Z,99925.44
2023-03-01T23:33:51.353Z,99919.44
2023-03-01T23:36:22.405Z,99919.66
2023-03-01T23:38:52.099Z,99918.85
2023-03-01T23:41:22.027Z,99918.99
2023-03-01T23:43:51.801Z,99916.04
2023-03-01T23:46:21.279Z,99915.15
2023-03-01T23:48:49.299Z,99919.71
2023-03-01T23:51:17.802Z,99921.98
2023-03-01T23:53:55.962Z,99918.58
2023-03-01T23:56:26.139Z,99924.67
2023-03-01T23:58:55.995Z,99926.36
